createdAt,value
2023-03-29T00:01:10.333Z,72.01
2023-03-29T00:03:40.413Z,72.18
2023-03-29T00:06:09.911Z,72.37
2023-03-29T00:08:39.062Z,72.93
2023-03-29T00:11:07.846Z,73.02
2023-03-29T00:13:36.713Z,72.94
2023-03-29T00:16:05.949Z,72.82
2023-03-29T00:18:34.702Z,72.41
2023-03-29T00:21:03.848Z,72.21
2023-03-29T00:23:32.764Z,72.37
2023-03-29T00:26:01.879Z,72.00
2023-03-29T00:28:31.478Z,72.58
2023-03-29T00:31:14.017Z,72.43
2023-03-29T00:33:43.556Z,72.64
2023-03-29T00:36:13.033Z,72.28
2023-03-29T00:38:42.267Z,72.39
2023-03-29T00:41:12.008Z,72.47
2023-03-29T00:44:00.192Z,72.04
2023-03-29T00:46:30.708Z,72.20
2023-03-29T00:49:09.884Z,72.44
2023-03-29T00:51:41.680Z,72.47
2023-03-29T00:54:18.799Z,72.38
2023-03-29T00:56:51.413Z,72.07
2023-03-29T00:59:28.360Z,71.86
2023-03-29T01:02:04.040Z,72.11
2023-03-29T01:04:43.928Z,71.86
2023-03-29T01:07:23.380Z,71.27
2023-03-29T01:10:09.403Z,70.74
2023-03-29T01:12:45.667Z,70.34
2023-03-29T01:15:27.413Z,70.26
2023-03-29T01:17:58.498Z,69.84
2023-03-29T01:20:44.031Z,69.54
2023-03-29T01:23:54.564Z,69.41
2023-03-29T01:27:15.823Z,69.02
2023-03-29T01:29:51.285Z,69.10
2023-03-29T01:32:37.882Z,69.06
2023-03-29T01:35:22.272Z,68.83
2023-03-29T01:38:05.537Z,68.88
2023-03-29T01:40:34.591Z,68.91
2023-03-29T01:43:20.666Z,68.65
2023-03-29T01:46:05.191Z,68.46
2023-03-29T01:48:42.419Z,68.53
2023-03-29T01:51:32.284Z,68.15
2023-03-29T01:54:12.036Z,68.04
2023-03-29T01:56:43.811Z,67.91
2023-03-29T01:59:18.838Z,67.61
2023-03-29T02:01:55.018Z,67.70
2023-03-29T02:04:31.945Z,67.46
2023-03-29T02:07:03.282Z,67.35
2023-03-29T02:09:33.884Z,67.08
2023-03-29T02:12:06.760Z,67.21
2023-03-29T02:14:35.732Z,67.06
2023-03-29T02:17:21.212Z,66.93
2023-03-29T02:20:17.717Z,66.84
2023-03-29T02:23:29.176Z,67.09
2023-03-29T02:25:58.465Z,66.71
2023-03-29T02:28:28.735Z,66.74
2023-03-29T02:31:25.041Z,66.89
2023-03-29T02:34:05.397Z,67.00
2023-03-29T02:36:44.835Z,67.07
2023-03-29T02:39:15.818Z,66.94
2023-03-29T02:41:50.058Z,67.35
2023-03-29T02:44:26.942Z,67.20
2023-03-29T02:47:06.764Z,67.88
2023-03-29T02:49:35.651Z,67.66
2023-03-29T02:52:12.839Z,67.62
2023-03-29T02:54:45.479Z,67.52
2023-03-29T02:57:14.448Z,67.40
2023-03-29T02:59:44.814Z,67.46
2023-03-29T03:02:14.352Z,67.40
2023-03-29T03:04:43.437Z,67.38
2023-03-29T03:07:12.145Z,67.07
2023-03-29T03:09:41.380Z,66.94
2023-03-29T03:12:10.867Z,66.62
2023-03-29T03:14:39.725Z,66.39
2023-03-29T03:17:08.502Z,66.24
2023-03-29T03:19:37.411Z,65.76
2023-03-29T03:22:07.832Z,64.98
2023-03-29T03:24:36.625Z,65.05
2023-03-29T03:27:05.428Z,64.90
2023-03-29T03:29:35.536Z,64.80
2023-03-29T03:32:26.493Z,63.90
2023-03-29T03:35:13.728Z,63.28
2023-03-29T03:37:43.145Z,63.30
2023-03-29T03:40:13.822Z,63.20
2023-03-29T03:42:42.646Z,62.96
2023-03-29T03:45:12.347Z,63.04
2023-03-29T03:47:43.704Z,63.10
2023-03-29T03:50:21.972Z,62.96
2023-03-29T03:52:50.978Z,63.35
2023-03-29T03:55:22.161Z,63.61
2023-03-29T03:57:53.974Z,63.01
2023-03-29T04:00:23.639Z,62.96
2023-03-29T04:03:21.925Z,63.18
2023-03-29T04:05:51.936Z,63.17
2023-03-29T04:08:22.660Z,63.65
2023-03-29T04:11:10.627Z,63.63
2023-03-29T04:13:40.971Z,64.33
2023-03-29T04:16:28.732Z,64.30
2023-03-29T04:19:00.419Z,64.18
2023-03-29T04:21:29.552Z,64.40
2023-03-29T04:23:58.340Z,64.70
2023-03-29T04:26:27.360Z,64.53
2023-03-29T04:29:07.291Z,64.64
2023-03-29T04:31:44.031Z,64.70
2023-03-29T04:34:53.476Z,65.26
2023-03-29T04:37:22.519Z,65.63
2023-03-29T04:39:52.727Z,65.31
2023-03-29T04:42:21.538Z,65.16
2023-03-29T04:44:50.310Z,65.07
2023-03-29T04:47:23.784Z,64.80
2023-03-29T04:49:57.355Z,64.79
2023-03-29T04:52:33.536Z,64.70
2023-03-29T04:55:05.910Z,64.30
2023-03-29T04:57:49.961Z,64.50
2023-03-29T05:00:31.800Z,64.59
2023-03-29T05:03:27.308Z,64.20
2023-03-29T05:06:09.119Z,64.11
2023-03-29T05:08:40.735Z,64.02
2023-03-29T05:11:15.491Z,64.16
2023-03-29T05:13:44.436Z,63.81
2023-03-29T05:16:13.346Z,63.79
2023-03-29T05:18:42.218Z,63.86
2023-03-29T05:21:11.654Z,63.82
2023-03-29T05:23:41.102Z,63.14
2023-03-29T05:26:10.100Z,62.96
2023-03-29T05:28:39.682Z,62.09
2023-03-29T05:31:09.312Z,61.94
2023-03-29T05:33:41.128Z,61.86
2023-03-29T05:36:16.862Z,61.64
2023-03-29T05:38:47.842Z,61.55
2023-03-29T05:41:18.073Z,61.84
2023-03-29T05:43:46.890Z,61.28
2023-03-29T05:46:15.728Z,60.26
2023-03-29T05:48:49.685Z,59.87
2023-03-29T05:51:24.407Z,59.38
2023-03-29T05:53:56.048Z,59.20
2023-03-29T05:56:25.014Z,57.85
2023-03-29T05:58:57.186Z,57.25
2023-03-29T06:01:26.062Z,56.99
2023-03-29T06:04:01.913Z,56.82
2023-03-29T06:06:36.413Z,56.05
2023-03-29T06:09:05.883Z,55.88
2023-03-29T06:11:46.768Z,55.87
2023-03-29T06:14:30.263Z,55.11
2023-03-29T06:17:48.632Z,54.77
2023-03-29T06:20:18.570Z,54.51
2023-03-29T06:22:52.728Z,54.14
2023-03-29T06:25:21.610Z,54.11
2023-03-29T06:27:52.395Z,54.25
2023-03-29T06:30:21.703Z,54.10
2023-03-29T06:32:53.003Z,54.27
2023-03-29T06:35:41.042Z,53.96
2023-03-29T06:38:11.360Z,53.98
2023-03-29T06:41:13.074Z,53.64
2023-03-29T06:44:34.481Z,51.79
2023-03-29T06:47:08.389Z,51.72
2023-03-29T06:49:38.130Z,51.85
2023-03-29T06:52:27.824Z,51.11
2023-03-29T06:54:56.728Z,51.37
2023-03-29T06:57:25.992Z,51.86
2023-03-29T06:59:55.198Z,51.07
2023-03-29T07:02:27.520Z,50.97
2023-03-29T07:04:59.325Z,49.92
2023-03-29T07:07:54.200Z,48.96
2023-03-29T07:10:53.531Z,49.91
2023-03-29T07:13:27.823Z,49.92
2023-03-29T07:15:56.982Z,49.49
2023-03-29T07:18:35.241Z,49.70
2023-03-29T07:21:05.157Z,48.65
2023-03-29T07:23:34.372Z,48.10
2023-03-29T07:26:03.878Z,48.06
2023-03-29T07:28:32.619Z,47.23
2023-03-29T07:31:11.261Z,47.51
2023-03-29T07:33:46.633Z,47.88
2023-03-29T07:36:15.910Z,47.98
2023-03-29T07:38:44.954Z,47.14
2023-03-29T07:41:18.368Z,46.73
2023-03-29T07:43:52.683Z,47.23
2023-03-29T07:46:25.390Z,46.38
2023-03-29T07:48:56.888Z,46.00
2023-03-29T07:51:26.006Z,46.15
2023-03-29T07:54:01.354Z,46.87
2023-03-29T07:56:53.982Z,46.97
2023-03-29T07:59:36.790Z,46.83
2023-03-29T08:02:21.320Z,46.11
2023-03-29T08:04:54.931Z,45.42
2023-03-29T08:07:57.319Z,45.69
2023-03-29T08:10:47.093Z,46.69
2023-03-29T08:14:05.374Z,47.53
2023-03-29T08:17:14.815Z,46.18
2023-03-29T08:19:50.978Z,45.39
2023-03-29T08:22:23.786Z,45.49
2023-03-29T08:25:39.018Z,46.61
2023-03-29T08:28:08.084Z,47.62
2023-03-29T08:30:45.812Z,47.50
2023-03-29T08:33:14.748Z,47.64
2023-03-29T08:35:43.846Z,45.58
2023-03-29T08:38:22.082Z,45.44
2023-03-29T08:40:51.388Z,46.18
2023-03-29T08:43:59.598Z,45.93
2023-03-29T08:47:50.975Z,45.95
2023-03-29T08:50:25.794Z,45.04
2023-03-29T08:53:04.858Z,44.59
2023-03-29T08:56:26.729Z,43.76
2023-03-29T08:58:57.713Z,42.94
2023-03-29T09:01:35.061Z,43.51
2023-03-29T09:04:24.034Z,44.95
2023-03-29T09:07:45.578Z,45.36
2023-03-29T09:10:20.773Z,45.11
2023-03-29T09:13:11.444Z,44.60
2023-03-29T09:16:03.782Z,44.45
2023-03-29T09:18:56.664Z,44.10
2023-03-29T09:21:49.649Z,43.76
2023-03-29T09:24:44.765Z,44.39
2023-03-29T09:27:28.423Z,44.13
2023-03-29T09:30:17.186Z,44.35
2023-03-29T09:33:25.123Z,40.55
2023-03-29T09:36:36.566Z,40.20
2023-03-29T09:39:06.150Z,41.16
2023-03-29T09:41:49.199Z,40.81
2023-03-29T09:44:31.282Z,41.10
2023-03-29T09:47:20.231Z,41.99
2023-03-29T09:49:55.433Z,41.87
2023-03-29T09:52:24.378Z,42.95
2023-03-29T09:55:05.345Z,45.44
2023-03-29T09:58:28.068Z,46.87
2023-03-29T10:01:05.985Z,48.16
2023-03-29T10:03:37.221Z,48.48
2023-03-29T10:06:12.722Z,48.57
2023-03-29T10:09:02.812Z,47.46
2023-03-29T10:11:38.489Z,44.41
2023-03-29T10:14:18.930Z,43.44
2023-03-29T10:16:54.815Z,43.57
2023-03-29T10:19:35.180Z,43.86
2023-03-29T10:22:25.224Z,44.02
2023-03-29T10:24:57.387Z,44.16
2023-03-29T10:27:32.374Z,44.02
2023-03-29T10:30:09.498Z,43.32
2023-03-29T10:32:39.334Z,43.37
2023-03-29T10:35:34.968Z,44.01
2023-03-29T10:38:10.561Z,44.38
2023-03-29T10:41:23.217Z,44.94
2023-03-29T10:43:52.338Z,45.20
2023-03-29T10:46:36.357Z,45.06
2023-03-29T10:49:10.401Z,46.06
2023-03-29T10:51:45.338Z,46.20
2023-03-29T10:54:16.164Z,46.65
2023-03-29T10:56:52.447Z,46.90
2023-03-29T10:59:39.626Z,47.68
2023-03-29T11:02:14.643Z,48.39
2023-03-29T11:05:17.924Z,49.70
2023-03-29T11:08:31.850Z,50.78
2023-03-29T11:11:35.198Z,51.30
2023-03-29T11:14:29.153Z,52.14
2023-03-29T11:17:08.891Z,51.63
2023-03-29T11:19:47.490Z,51.72
2023-03-29T11:22:53.363Z,51.90
2023-03-29T11:26:02.802Z,51.49
2023-03-29T11:29:02.846Z,50.27
2023-03-29T11:31:53.122Z,49.79
2023-03-29T11:34:42.975Z,49.55
2023-03-29T11:37:23.318Z,53.73
2023-03-29T11:40:05.807Z,58.50
2023-03-29T11:42:39.477Z,58.74
2023-03-29T11:45:18.999Z,58.73
2023-03-29T11:47:49.499Z,58.22
2023-03-29T11:50:36.053Z,57.41
2023-03-29T11:53:26.426Z,56.08
2023-03-29T11:55:57.821Z,54.98
2023-03-29T11:58:39.091Z,54.54
2023-03-29T12:01:15.054Z,53.61
2023-03-29T12:03:54.189Z,51.78
2023-03-29T12:06:34.827Z,50.58
2023-03-29T12:09:24.457Z,50.90
2023-03-29T12:12:06.063Z,51.08
2023-03-29T12:15:20.570Z,51.64
2023-03-29T12:18:35.276Z,51.41
2023-03-29T12:21:11.075Z,51.32
2023-03-29T12:23:43.718Z,50.58
2023-03-29T12:26:20.694Z,50.89
2023-03-29T12:29:18.590Z,50.54
2023-03-29T12:32:21.702Z,51.01
2023-03-29T12:35:37.920Z,51.66
2023-03-29T12:38:30.549Z,51.49
2023-03-29T12:41:21.925Z,50.55
2023-03-29T12:44:15.580Z,49.09
2023-03-29T12:46:58.761Z,48.02
2023-03-29T12:49:34.446Z,45.74
2023-03-29T12:52:17.799Z,44.16
2023-03-29T12:54:59.369Z,43.42
2023-03-29T12:57:42.458Z,44.07
2023-03-29T13:00:22.676Z,42.27
2023-03-29T13:03:28.460Z,40.98
2023-03-29T13:06:05.333Z,41.55
2023-03-29T13:08:43.857Z,42.07
2023-03-29T13:11:27.824Z,42.02
2023-03-29T13:13:57.476Z,42.96
2023-03-29T13:16:35.214Z,43.84
2023-03-29T13:19:10.142Z,44.07
2023-03-29T13:21:49.515Z,43.24
2023-03-29T13:24:35.155Z,43.14
2023-03-29T13:27:35.126Z,43.22
2023-03-29T13:30:13.099Z,43.12
2023-03-29T13:33:24.981Z,42.87
2023-03-29T13:35:59.700Z,44.63
2023-03-29T13:38:32.062Z,45.13
2023-03-29T13:41:07.540Z,44.94
2023-03-29T13:43:56.068Z,45.11
2023-03-29T13:46:38.566Z,44.97
2023-03-29T13:49:19.872Z,44.21
2023-03-29T13:52:19.776Z,44.29
2023-03-29T13:55:02.214Z,44.39
2023-03-29T13:57:54.666Z,44.76
2023-03-29T14:00:37.016Z,43.34
2023-03-29T14:03:14.738Z,42.87
2023-03-29T14:05:50.982Z,43.36
2023-03-29T14:08:35.804Z,44.31
2023-03-29T14:11:08.517Z,44.81
2023-03-29T14:13:37.312Z,45.17
2023-03-29T14:16:11.665Z,45.59
2023-03-29T14:18:42.563Z,45.49
2023-03-29T14:21:15.795Z,45.09
2023-03-29T14:23:47.051Z,44.35
2023-03-29T14:26:21.646Z,43.36
2023-03-29T14:29:01.347Z,43.27
2023-03-29T14:31:36.545Z,43.51
2023-03-29T14:34:11.681Z,43.62
2023-03-29T14:36:41.649Z,43.85
2023-03-29T14:39:23.058Z,44.04
2023-03-29T14:41:59.639Z,43.92
2023-03-29T14:44:34.787Z,44.08
2023-03-29T14:47:03.897Z,44.14
2023-03-29T14:49:33.305Z,43.34
2023-03-29T14:52:02.452Z,41.42
2023-03-29T14:54:34.413Z,41.23
2023-03-29T14:57:09.387Z,41.12
2023-03-29T14:59:44.186Z,40.64
2023-03-29T15:03:01.896Z,41.12
2023-03-29T15:05:33.394Z,40.87
2023-03-29T15:08:03.638Z,40.62
2023-03-29T15:10:35.707Z,41.69
2023-03-29T15:13:07.560Z,41.77
2023-03-29T15:15:39.158Z,41.16
2023-03-29T15:18:13.067Z,41.66
2023-03-29T15:20:42.755Z,41.98
2023-03-29T15:23:17.393Z,41.75
2023-03-29T15:26:21.851Z,41.70
2023-03-29T15:28:57.670Z,41.95
2023-03-29T15:31:34.923Z,42.02
2023-03-29T15:34:11.376Z,41.26
2023-03-29T15:36:45.748Z,41.15
2023-03-29T15:39:17.355Z,41.47
2023-03-29T15:41:49.539Z,42.05
2023-03-29T15:44:26.558Z,42.06
2023-03-29T15:46:57.974Z,41.50
2023-03-29T15:49:27.360Z,40.54
2023-03-29T15:51:56.101Z,39.94
2023-03-29T15:54:24.986Z,39.84
2023-03-29T15:57:12.852Z,39.30
2023-03-29T15:59:43.223Z,39.08
2023-03-29T16:02:16.817Z,39.61
2023-03-29T16:04:45.645Z,39.49
2023-03-29T16:07:17.179Z,39.32
2023-03-29T16:09:49.011Z,39.50
2023-03-29T16:12:17.759Z,39.51
2023-03-29T16:14:46.594Z,40.10
2023-03-29T16:17:16.099Z,40.88
2023-03-29T16:19:44.856Z,41.37
2023-03-29T16:22:13.575Z,42.33
2023-03-29T16:24:43.859Z,42.60
2023-03-29T16:27:12.673Z,42.38
2023-03-29T16:29:41.351Z,43.41
2023-03-29T16:32:11.272Z,42.82
2023-03-29T16:37:10.101Z,43.34
2023-03-29T16:39:39.008Z,44.50
2023-03-29T16:42:12.260Z,44.41
2023-03-29T16:44:41.086Z,44.23
2023-03-29T16:47:12.388Z,44.55
2023-03-29T16:49:41.932Z,45.12
2023-03-29T16:52:12.473Z,45.23
2023-03-29T16:54:42.447Z,45.90
2023-03-29T16:57:11.286Z,46.16
2023-03-29T16:59:41.930Z,46.86
2023-03-29T17:02:10.828Z,46.72
2023-03-29T17:04:39.618Z,46.99
2023-03-29T17:07:08.520Z,46.78
2023-03-29T17:09:37.179Z,47.04
2023-03-29T17:12:06.113Z,47.44
2023-03-29T17:14:34.981Z,48.00
2023-03-29T17:17:04.256Z,48.04
2023-03-29T17:19:33.132Z,47.90
2023-03-29T17:22:02.269Z,48.51
2023-03-29T17:24:31.135Z,48.55
2023-03-29T17:27:00.145Z,48.33
2023-03-29T17:29:28.889Z,48.41
2023-03-29T17:31:57.583Z,48.41
2023-03-29T17:34:29.080Z,48.11
2023-03-29T17:36:57.717Z,48.33
2023-03-29T17:39:27.307Z,48.01
2023-03-29T17:41:56.910Z,48.10
2023-03-29T17:44:25.667Z,48.11
2023-03-29T17:46:54.454Z,48.16
2023-03-29T17:49:23.158Z,48.23
2023-03-29T17:51:52.194Z,48.33
2023-03-29T17:54:21.083Z,48.27
2023-03-29T17:56:50.592Z,48.57
2023-03-29T17:59:19.468Z,48.59
2023-03-29T18:01:48.158Z,48.70
2023-03-29T18:04:16.884Z,48.59
2023-03-29T18:06:46.028Z,48.64
2023-03-29T18:09:14.717Z,48.49
2023-03-29T18:11:43.676Z,48.83
2023-03-29T18:14:12.416Z,48.62
2023-03-29T18:16:41.844Z,49.30
2023-03-29T18:19:10.986Z,48.65
2023-03-29T18:21:40.005Z,48.77
2023-03-29T18:24:08.734Z,48.72
2023-03-29T18:26:37.485Z,48.67
2023-03-29T18:29:07.382Z,49.36
2023-03-29T18:31:38.090Z,49.30
2023-03-29T18:34:06.921Z,48.95
2023-03-29T18:36:35.725Z,49.10
2023-03-29T18:39:07.475Z,48.63
2023-03-29T18:41:37.448Z,49.10
2023-03-29T18:44:07.912Z,49.39
2023-03-29T18:46:36.916Z,49.27
2023-03-29T18:49:07.892Z,49.59
2023-03-29T18:51:36.725Z,49.27
2023-03-29T18:54:06.204Z,49.29
2023-03-29T18:56:36.046Z,49.34
2023-03-29T18:59:06.576Z,49.14
2023-03-29T19:01:35.490Z,48.96
2023-03-29T19:04:04.570Z,49.07
2023-03-29T19:06:33.993Z,48.62
2023-03-29T19:09:05.219Z,48.74
2023-03-29T19:11:36.155Z,48.42
2023-03-29T19:14:08.470Z,48.34
2023-03-29T19:16:37.161Z,47.77
2023-03-29T19:19:08.706Z,47.50
2023-03-29T19:21:38.641Z,47.84
2023-03-29T19:24:07.996Z,47.27
2023-03-29T19:26:36.741Z,47.71
2023-03-29T19:29:05.765Z,48.22
2023-03-29T19:31:37.918Z,48.37
2023-03-29T19:34:07.162Z,49.08
2023-03-29T19:36:35.967Z,52.17
2023-03-29T19:39:06.215Z,52.88
2023-03-29T19:41:35.006Z,51.53
2023-03-29T19:44:05.436Z,51.42
2023-03-29T19:46:34.143Z,51.40
2023-03-29T19:49:05.159Z,50.96
2023-03-29T19:51:34.581Z,51.41
2023-03-29T19:54:03.310Z,52.01
2023-03-29T19:56:33.257Z,51.59
2023-03-29T19:59:01.995Z,51.64
2023-03-29T20:01:32.555Z,51.43
2023-03-29T20:04:02.649Z,51.47
2023-03-29T20:06:31.517Z,52.03
2023-03-29T20:09:00.346Z,52.28
2023-03-29T20:11:29.119Z,53.75
2023-03-29T20:13:57.868Z,53.15
2023-03-29T20:16:27.223Z,51.32
2023-03-29T20:18:56.447Z,50.96
2023-03-29T20:21:25.254Z,50.81
2023-03-29T20:23:53.982Z,51.11
2023-03-29T20:26:23.685Z,52.25
2023-03-29T20:28:52.580Z,54.01
2023-03-29T20:31:21.389Z,55.44
2023-03-29T20:33:50.459Z,52.75
2023-03-29T20:36:23.159Z,51.69
2023-03-29T20:38:52.697Z,51.99
2023-03-29T20:41:21.342Z,53.18
2023-03-29T20:43:58.638Z,53.24
2023-03-29T20:46:35.294Z,54.17
2023-03-29T20:49:09.008Z,53.62
2023-03-29T20:51:39.620Z,52.79
2023-03-29T20:54:10.226Z,52.33
2023-03-29T20:56:42.559Z,52.48
2023-03-29T20:59:11.366Z,52.91
2023-03-29T21:01:41.143Z,52.58
2023-03-29T21:04:11.123Z,51.59
2023-03-29T21:06:41.660Z,51.83
2023-03-29T21:09:10.392Z,52.15
2023-03-29T21:11:39.402Z,52.72
2023-03-29T21:14:09.489Z,52.92
2023-03-29T21:16:42.027Z,53.97
2023-03-29T21:19:11.073Z,53.38
2023-03-29T21:21:41.584Z,53.97
2023-03-29T21:24:13.525Z,54.43
2023-03-29T21:26:42.311Z,54.28
2023-03-29T21:29:11.568Z,53.52
2023-03-29T21:31:40.901Z,53.54
2023-03-29T21:34:09.708Z,54.12
2023-03-29T21:36:39.965Z,53.85
2023-03-29T21:39:08.839Z,53.88
2023-03-29T21:41:37.587Z,54.44
2023-03-29T21:44:06.452Z,54.59
2023-03-29T21:46:35.478Z,54.32
2023-03-29T21:49:04.394Z,55.05
2023-03-29T21:51:33.101Z,54.69
2023-03-29T21:54:01.823Z,54.96
2023-03-29T21:56:30.507Z,54.66
2023-03-29T21:58:59.172Z,54.34
2023-03-29T22:01:28.219Z,54.92
2023-03-29T22:03:57.082Z,54.23
2023-03-29T22:06:25.825Z,54.50
2023-03-29T22:08:54.722Z,54.50
2023-03-29T22:11:23.536Z,54.56
2023-03-29T22:13:52.788Z,54.70
2023-03-29T22:16:22.364Z,55.33
2023-03-29T22:18:52.586Z,55.26
2023-03-29T22:21:25.107Z,55.36
2023-03-29T22:23:56.877Z,55.33
2023-03-29T22:26:29.896Z,54.44
2023-03-29T22:29:00.614Z,54.77
2023-03-29T22:31:30.310Z,54.54
2023-03-29T22:34:00.013Z,54.48
2023-03-29T22:36:31.311Z,54.88
2023-03-29T22:38:59.977Z,55.22
2023-03-29T22:41:28.938Z,55.20
2023-03-29T22:44:01.234Z,55.40
2023-03-29T22:46:30.174Z,55.42
2023-03-29T22:48:59.041Z,55.19
2023-03-29T22:51:27.747Z,55.51
2023-03-29T22:53:56.474Z,55.52
2023-03-29T22:56:25.682Z,55.98
2023-03-29T22:58:54.411Z,56.02
2023-03-29T23:01:23.225Z,56.20
2023-03-29T23:03:51.975Z,56.60
2023-03-29T23:06:20.702Z,56.27
2023-03-29T23:08:49.368Z,57.20
2023-03-29T23:11:18.219Z,57.52
2023-03-29T23:13:49.036Z,56.91
2023-03-29T23:16:20.947Z,59.19
2023-03-29T23:18:49.840Z,60.22
2023-03-29T23:21:18.619Z,59.46
2023-03-29T23:23:47.280Z,59.99
2023-03-29T23:26:16.203Z,61.35
2023-03-29T23:28:45.006Z,59.95
2023-03-29T23:31:18.571Z,59.40
2023-03-29T23:33:47.490Z,58.43
2023-03-29T23:36:18.594Z,57.76
2023-03-29T23:38:47.991Z,57.71
2023-03-29T23:41:17.927Z,57.43
2023-03-29T23:43:47.591Z,58.08
2023-03-29T23:46:19.064Z,57.90
2023-03-29T23:48:50.289Z,58.23
2023-03-29T23:51:23.418Z,59.73
2023-03-29T23:53:52.696Z,58.71
2023-03-29T23:56:21.808Z,58.67
2023-03-29T23:58:51.153Z,57.83
